Pagina principale
METAR-TAF:

METAR-TAF

Aeroporti :

Aeroporto di Yaoundé-Nsimalen

Yaoundé, Camerun

latitudine: 03-50N, longitudine: 011-31E, altezza: 751 m

Osservazione

Il bollettino è stato emesso 37 minuti fa, alle 01:00 UTC
Vento 5 kt da ovest/sud-ovest, variando fra sud-ovest e ovest/nord-ovest
Temperature 24°C
Umidità 94%
Pressione 1015 hPa
Visibilità: 2000 m
foschia

METAR: FKYS 290100Z 25005KT 220V290 2000 BR NSC 24/23 Q1015 NOSIG

Ora: 02:37 (01:37 UTC)

Previsione

Il bollettino è stato emesso 2 ore e 37 minuti fa, alle 23:00 UTC
Previsione valida dal 29 alle 00 UTC al 29 alle 24 UTC
Vento 5 kt da ovest
Visibilità: 2000 m
Nuvoloso ad un'altezza di 600 ft
foschia
Temporaneamente
dal 29 alle 04 UTC al 29 alle 08 UTC
Visibilità: 1400 m
foschia

TAF: FKYS 282300Z 2900/2924 26005KT 2000 BR BKN006 TEMPO 2904/2908 1400 BR

Osservazioni e previsioni meteorologiche di più di 4000 aeroporti (messaggi METAR e TAF).

Le stazioni disponibili sono rappresentate dai dischi gialli e rossi sulla carta.

Puntare il mouse per vedere il nome della stazione.

Clicca sopra per visualizzare le osservazioni e previsioni meteorologiche.

Per cambiare la mappa : fare clic sui pulsanti verdi con una croce nera per ingrandire, il pulsante verde con un trattino per diminuire, o sulla freccia verde per le mappe adiacenti.


METAR-TAF: